createdAt,value
2023-04-16T00:00:22.524Z,7.10
2023-04-16T00:03:15.084Z,7.10
2023-04-16T00:05:50.289Z,7.10
2023-04-16T00:08:21.731Z,7.10
2023-04-16T00:10:54.817Z,7.10
2023-04-16T00:13:28.400Z,7.10
2023-04-16T00:16:05.041Z,7.00
2023-04-16T00:18:38.422Z,7.00
2023-04-16T00:21:10.385Z,7.10
2023-04-16T00:23:43.130Z,7.00
2023-04-16T00:26:15.796Z,7.00
2023-04-16T00:28:50.351Z,7.00
2023-04-16T00:31:30.668Z,7.00
2023-04-16T00:34:03.277Z,7.00
2023-04-16T00:36:38.443Z,6.90
2023-04-16T00:39:11.602Z,7.00
2023-04-16T00:41:46.256Z,6.90
2023-04-16T00:44:21.191Z,6.90
2023-04-16T00:46:57.870Z,6.80
2023-04-16T00:49:31.055Z,6.70
2023-04-16T00:52:06.449Z,6.70
2023-04-16T00:54:41.675Z,6.70
2023-04-16T00:57:15.827Z,6.60
2023-04-16T00:59:48.812Z,6.60
2023-04-16T01:02:23.706Z,6.60
2023-04-16T01:04:56.755Z,6.60
2023-04-16T01:07:28.785Z,6.60
2023-04-16T01:10:03.484Z,6.70
2023-04-16T01:12:43.895Z,6.60
2023-04-16T01:15:15.702Z,6.60
2023-04-16T01:17:51.523Z,6.60
2023-04-16T01:20:24.274Z,6.60
2023-04-16T01:23:00.493Z,6.60
2023-04-16T01:25:33.474Z,6.60
2023-04-16T01:28:06.775Z,6.50
2023-04-16T01:30:38.662Z,6.60
2023-04-16T01:33:22.482Z,6.60
2023-04-16T01:35:54.325Z,6.60
2023-04-16T01:38:30.340Z,6.60
2023-04-16T01:41:02.823Z,6.60
2023-04-16T01:43:34.434Z,6.60
2023-04-16T01:46:19.214Z,6.60
2023-04-16T01:48:55.180Z,6.60
2023-04-16T01:51:27.610Z,6.60
2023-04-16T01:54:01.461Z,6.60
2023-04-16T01:56:33.959Z,6.60
2023-04-16T01:59:05.649Z,6.60
2023-04-16T02:01:42.788Z,6.60
2023-04-16T02:04:16.719Z,6.60
2023-04-16T02:06:49.766Z,6.50
2023-04-16T02:09:25.541Z,6.50
2023-04-16T02:11:59.367Z,6.50
2023-04-16T02:14:33.158Z,6.50
2023-04-16T02:17:08.707Z,6.50
2023-04-16T02:19:50.086Z,6.50
2023-04-16T02:22:21.453Z,6.50
2023-04-16T02:24:55.973Z,6.50
2023-04-16T02:27:28.665Z,6.50
2023-04-16T02:30:13.080Z,6.50
2023-04-16T02:32:48.689Z,6.50
2023-04-16T02:35:24.072Z,6.50
2023-04-16T02:37:58.614Z,6.50
2023-04-16T02:40:38.267Z,6.40
2023-04-16T02:43:13.981Z,6.40
2023-04-16T02:45:51.410Z,6.50
2023-04-16T02:48:24.179Z,6.50
2023-04-16T02:50:57.557Z,6.50
2023-04-16T02:53:31.877Z,6.40
2023-04-16T02:56:07.839Z,6.40
2023-04-16T02:58:40.496Z,6.40
2023-04-16T03:01:15.006Z,6.40
2023-04-16T03:03:50.074Z,6.40
2023-04-16T03:06:24.482Z,6.40
2023-04-16T03:09:05.084Z,6.40
2023-04-16T03:11:41.042Z,6.30
2023-04-16T03:14:16.281Z,6.30
2023-04-16T03:16:49.373Z,6.20
2023-04-16T03:19:22.202Z,6.20
2023-04-16T03:21:55.708Z,6.20
2023-04-16T03:24:28.925Z,6.20
2023-04-16T03:27:07.237Z,6.10
2023-04-16T03:29:41.339Z,6.10
2023-04-16T03:32:18.210Z,6.10
2023-04-16T03:34:50.748Z,6.20
2023-04-16T03:37:26.045Z,6.20
2023-04-16T03:39:59.537Z,6.20
2023-04-16T03:42:35.144Z,6.20
2023-04-16T03:45:13.471Z,6.20
2023-04-16T03:47:53.202Z,6.20
2023-04-16T03:50:29.727Z,6.10
2023-04-16T03:53:06.501Z,6.10
2023-04-16T03:55:39.485Z,6.10
2023-04-16T03:58:15.957Z,6.10
2023-04-16T04:00:48.310Z,6.10
2023-04-16T04:03:22.703Z,6.10
2023-04-16T04:05:56.583Z,6.10
2023-04-16T04:08:36.134Z,6.10
2023-04-16T04:11:11.527Z,6.20
2023-04-16T04:13:49.648Z,6.20
2023-04-16T04:16:22.563Z,6.20
2023-04-16T04:18:56.756Z,6.20
2023-04-16T04:21:32.815Z,6.20
2023-04-16T04:24:07.981Z,6.20
2023-04-16T04:26:43.596Z,6.20
2023-04-16T04:29:19.639Z,6.30
2023-04-16T04:31:56.428Z,6.30
2023-04-16T04:34:33.199Z,6.20
2023-04-16T04:37:07.054Z,6.20
2023-04-16T04:39:40.131Z,6.10
2023-04-16T04:42:20.368Z,6.20
2023-04-16T04:44:57.310Z,6.20
2023-04-16T04:47:32.619Z,6.20
2023-04-16T04:50:08.962Z,6.30
2023-04-16T04:52:43.395Z,6.30
2023-04-16T04:55:17.138Z,6.30
2023-04-16T04:57:50.624Z,6.30
2023-04-16T05:00:29.866Z,6.30
2023-04-16T05:03:02.808Z,6.30
2023-04-16T05:05:40.214Z,6.30
2023-04-16T05:08:17.779Z,6.30
2023-04-16T05:10:50.949Z,6.20
2023-04-16T05:13:25.518Z,6.20
2023-04-16T05:16:01.692Z,6.20
2023-04-16T05:18:41.213Z,6.30
2023-04-16T05:21:16.362Z,6.30
2023-04-16T05:23:50.176Z,6.30
2023-04-16T05:26:24.105Z,6.30
2023-04-16T05:28:59.713Z,6.30
2023-04-16T05:31:36.261Z,6.30
2023-04-16T05:34:08.092Z,6.30
2023-04-16T05:36:45.147Z,6.40
2023-04-16T05:39:19.927Z,6.40
2023-04-16T05:41:53.213Z,6.50
2023-04-16T05:44:30.643Z,6.50
2023-04-16T05:47:16.394Z,6.60
2023-04-16T05:49:48.779Z,6.60
2023-04-16T05:52:23.504Z,6.60
2023-04-16T05:54:58.062Z,6.60
2023-04-16T05:57:33.010Z,6.60
2023-04-16T06:00:06.408Z,6.60
2023-04-16T06:02:51.155Z,6.60
2023-04-16T06:05:24.864Z,6.70
2023-04-16T06:07:59.277Z,6.70
2023-04-16T06:10:35.890Z,6.70
2023-04-16T06:13:11.600Z,6.70
2023-04-16T06:15:45.050Z,6.70
2023-04-16T06:18:19.638Z,6.80
2023-04-16T06:20:51.319Z,6.80
2023-04-16T06:23:23.747Z,6.80
2023-04-16T06:25:55.746Z,6.80
2023-04-16T06:28:29.649Z,6.80
2023-04-16T06:31:12.155Z,6.80
2023-04-16T06:33:48.944Z,6.90
2023-04-16T06:36:28.454Z,6.90
2023-04-16T06:39:03.603Z,6.90
2023-04-16T06:41:36.864Z,6.90
2023-04-16T06:44:09.402Z,6.90
2023-04-16T06:46:42.170Z,7.00
2023-04-16T06:49:16.994Z,7.00
2023-04-16T06:51:47.928Z,7.00
2023-04-16T06:54:23.948Z,7.00
2023-04-16T06:57:02.129Z,7.00
2023-04-16T06:59:36.286Z,7.10
2023-04-16T07:02:07.541Z,7.10
2023-04-16T07:04:43.918Z,7.20
2023-04-16T07:07:18.321Z,7.10
2023-04-16T07:09:54.488Z,7.10
2023-04-16T07:12:26.124Z,7.20
2023-04-16T07:14:59.924Z,7.20
2023-04-16T07:17:31.369Z,7.30
2023-04-16T07:20:06.968Z,7.20
2023-04-16T07:22:39.590Z,7.30
2023-04-16T07:25:13.087Z,7.30
2023-04-16T07:27:45.914Z,7.30
2023-04-16T07:30:18.948Z,7.30
2023-04-16T07:32:50.551Z,7.40
2023-04-16T07:35:26.196Z,7.50
2023-04-16T07:37:59.863Z,7.60
2023-04-16T07:40:32.015Z,7.60
2023-04-16T07:43:03.341Z,7.70
2023-04-16T07:45:37.247Z,7.70
2023-04-16T07:48:09.139Z,7.80
2023-04-16T07:50:43.946Z,7.70
2023-04-16T07:53:15.009Z,7.80
2023-04-16T07:55:47.863Z,7.80
2023-04-16T07:58:20.096Z,7.80
2023-04-16T08:00:53.082Z,7.90
2023-04-16T08:03:26.048Z,7.90
2023-04-16T08:06:00.557Z,8.00
2023-04-16T08:08:32.923Z,8.00
2023-04-16T08:11:08.102Z,8.00
2023-04-16T08:13:42.042Z,8.10
2023-04-16T08:16:15.022Z,8.00
2023-04-16T08:18:50.955Z,8.00
2023-04-16T08:21:27.088Z,8.10
2023-04-16T08:23:58.473Z,8.10
2023-04-16T08:26:29.985Z,8.00
2023-04-16T08:29:02.010Z,8.00
2023-04-16T08:31:34.511Z,8.10
2023-04-16T08:34:05.326Z,8.10
2023-04-16T08:36:39.042Z,8.10
2023-04-16T08:39:10.067Z,8.10
2023-04-16T08:41:44.423Z,8.00
2023-04-16T08:44:17.820Z,8.00
2023-04-16T08:46:49.895Z,8.00
2023-04-16T08:49:21.482Z,8.10
2023-04-16T08:51:56.417Z,8.10
2023-04-16T08:54:34.204Z,8.10
2023-04-16T08:57:07.796Z,8.10
2023-04-16T08:59:38.855Z,8.20
2023-04-16T09:02:12.238Z,8.20
2023-04-16T09:04:44.691Z,8.30
2023-04-16T09:07:19.040Z,8.40
2023-04-16T09:09:51.807Z,8.40
2023-04-16T09:12:25.980Z,8.50
2023-04-16T09:14:57.350Z,8.50
2023-04-16T09:17:28.459Z,8.60
2023-04-16T09:19:59.518Z,8.60
2023-04-16T09:22:33.484Z,8.60
2023-04-16T09:25:04.217Z,8.60
2023-04-16T09:27:35.939Z,8.60
2023-04-16T09:30:22.309Z,8.60
2023-04-16T09:32:53.956Z,8.70
2023-04-16T09:35:29.428Z,8.70
2023-04-16T09:38:03.254Z,8.80
2023-04-16T09:40:33.988Z,8.80
2023-04-16T09:43:13.239Z,8.80
2023-04-16T09:45:53.973Z,8.80
2023-04-16T09:48:32.127Z,8.80
2023-04-16T09:51:03.622Z,8.90
2023-04-16T09:53:38.592Z,9.00
2023-04-16T09:56:10.194Z,9.10
2023-04-16T09:58:42.014Z,9.10
2023-04-16T10:01:14.364Z,9.10
2023-04-16T10:03:46.376Z,9.10
2023-04-16T10:06:19.918Z,9.20
2023-04-16T10:08:57.378Z,9.20
2023-04-16T10:11:30.253Z,9.20
2023-04-16T10:14:02.561Z,9.20
2023-04-16T10:16:34.098Z,9.30
2023-04-16T10:19:05.475Z,9.30
2023-04-16T10:21:36.673Z,9.50
2023-04-16T10:24:10.902Z,9.70
2023-04-16T10:26:42.332Z,9.80
2023-04-16T10:29:14.740Z,9.90
2023-04-16T10:31:45.604Z,9.90
2023-04-16T10:34:17.762Z,10.00
2023-04-16T10:36:52.837Z,10.00
2023-04-16T10:39:27.347Z,10.00
2023-04-16T10:42:10.696Z,10.10
2023-04-16T10:44:45.253Z,10.10
2023-04-16T10:47:17.775Z,10.10
2023-04-16T10:49:51.355Z,10.20
2023-04-16T10:52:24.942Z,10.30
2023-04-16T10:54:58.753Z,10.40
2023-04-16T10:57:32.256Z,10.40
2023-04-16T11:00:04.497Z,10.40
2023-04-16T11:02:35.441Z,10.40
2023-04-16T11:05:07.137Z,10.40
2023-04-16T11:07:39.695Z,10.40
2023-04-16T11:10:16.112Z,10.40
2023-04-16T11:12:47.776Z,10.40
2023-04-16T11:15:19.989Z,10.40
2023-04-16T11:17:52.084Z,10.50
2023-04-16T11:20:24.290Z,10.50
2023-04-16T11:22:55.752Z,10.50
2023-04-16T11:25:30.575Z,10.50
2023-04-16T11:28:02.020Z,10.50
2023-04-16T11:30:35.026Z,10.50
2023-04-16T11:33:06.233Z,10.50
2023-04-16T11:35:39.594Z,10.40
2023-04-16T11:38:10.628Z,10.40
2023-04-16T11:40:45.404Z,10.40
2023-04-16T11:43:17.046Z,10.40
2023-04-16T11:45:58.681Z,10.40
2023-04-16T11:48:48.921Z,10.40
2023-04-16T11:51:20.933Z,10.50
2023-04-16T11:53:53.448Z,10.50
2023-04-16T11:56:32.312Z,10.40
2023-04-16T11:59:10.259Z,10.40
2023-04-16T12:01:42.578Z,10.40
2023-04-16T12:04:13.395Z,10.40
2023-04-16T12:06:44.690Z,10.30
2023-04-16T12:09:28.263Z,10.30
2023-04-16T12:12:02.211Z,10.30
2023-04-16T12:14:33.677Z,10.30
2023-04-16T12:17:20.110Z,10.30
2023-04-16T12:19:54.252Z,10.20
2023-04-16T12:22:30.446Z,10.20
2023-04-16T12:25:05.104Z,10.20
2023-04-16T12:27:53.474Z,10.30
2023-04-16T12:30:26.484Z,10.30
2023-04-16T12:33:16.271Z,10.20
2023-04-16T12:35:47.095Z,10.20
2023-04-16T12:38:18.244Z,10.20
2023-04-16T12:40:48.937Z,10.20
2023-04-16T12:43:23.887Z,10.30
2023-04-16T12:45:55.618Z,10.20
2023-04-16T12:48:27.030Z,10.30
2023-04-16T12:50:58.301Z,10.30
2023-04-16T12:53:29.903Z,10.40
2023-04-16T12:56:00.929Z,10.50
2023-04-16T12:58:34.908Z,10.60
2023-04-16T13:01:05.595Z,10.70
2023-04-16T13:03:37.890Z,10.80
2023-04-16T13:06:08.755Z,10.80
2023-04-16T13:08:41.052Z,10.90
2023-04-16T13:11:12.034Z,11.00
2023-04-16T13:13:49.390Z,11.00
2023-04-16T13:16:20.642Z,11.00
2023-04-16T13:18:51.997Z,11.00
2023-04-16T13:21:24.098Z,11.00
2023-04-16T13:23:55.131Z,11.00
2023-04-16T13:26:25.893Z,10.90
2023-04-16T13:28:59.725Z,11.00
2023-04-16T13:31:30.773Z,10.90
2023-04-16T13:34:02.078Z,10.90
2023-04-16T13:36:35.206Z,11.00
2023-04-16T13:39:11.138Z,11.00
2023-04-16T13:41:42.517Z,11.00
2023-04-16T13:44:16.292Z,10.90
2023-04-16T13:46:49.226Z,11.00
2023-04-16T13:49:20.354Z,11.00
2023-04-16T13:51:51.296Z,11.00
2023-04-16T13:54:22.484Z,11.00
2023-04-16T13:56:53.288Z,11.00
2023-04-16T13:59:26.992Z,11.00
2023-04-16T14:01:58.403Z,11.00
2023-04-16T14:04:29.438Z,11.00
2023-04-16T14:07:00.233Z,11.00
2023-04-16T14:09:31.287Z,11.00
2023-04-16T14:12:02.120Z,11.00
2023-04-16T14:14:36.236Z,11.10
2023-04-16T14:17:07.971Z,11.10
2023-04-16T14:19:39.036Z,11.10
2023-04-16T14:22:09.886Z,11.10
2023-04-16T14:24:40.978Z,11.10
2023-04-16T14:27:11.718Z,11.10
2023-04-16T14:29:46.871Z,11.10
2023-04-16T14:32:17.655Z,11.10
2023-04-16T14:34:48.721Z,11.10
2023-04-16T14:37:19.429Z,11.10
2023-04-16T14:39:51.417Z,11.10
2023-04-16T14:42:22.774Z,11.10
2023-04-16T14:44:56.502Z,11.10
2023-04-16T14:47:27.631Z,11.10
2023-04-16T14:49:58.966Z,11.10
2023-04-16T14:52:29.672Z,11.10
2023-04-16T14:55:00.804Z,11.10
2023-04-16T14:57:31.951Z,11.10
2023-04-16T15:00:08.271Z,11.00
2023-04-16T15:02:39.084Z,11.10
2023-04-16T15:05:11.675Z,11.00
2023-04-16T15:07:42.474Z,11.00
2023-04-16T15:10:14.605Z,11.00
2023-04-16T15:12:46.812Z,11.00
2023-04-16T15:15:21.864Z,10.90
2023-04-16T15:17:53.732Z,10.90
2023-04-16T15:20:25.149Z,11.00
2023-04-16T15:22:57.824Z,11.00
2023-04-16T15:25:29.562Z,11.00
2023-04-16T15:28:03.320Z,11.00
2023-04-16T15:30:37.886Z,11.00
2023-04-16T15:33:09.058Z,11.00
2023-04-16T15:35:41.636Z,10.90
2023-04-16T15:38:12.475Z,10.90
2023-04-16T15:40:44.303Z,10.90
2023-04-16T15:43:15.108Z,10.90
2023-04-16T15:45:49.327Z,10.90
2023-04-16T15:48:21.720Z,10.80
2023-04-16T15:50:53.188Z,10.80
2023-04-16T15:53:24.154Z,10.80
2023-04-16T15:55:55.322Z,10.80
2023-04-16T15:58:26.160Z,10.80
2023-04-16T16:01:00.260Z,10.80
2023-04-16T16:03:33.473Z,10.80
2023-04-16T16:06:08.244Z,10.70
2023-04-16T16:08:39.792Z,10.80
2023-04-16T16:11:11.204Z,10.70
2023-04-16T16:13:42.204Z,10.70
2023-04-16T16:16:16.469Z,10.70
2023-04-16T16:18:47.814Z,10.70
2023-04-16T16:21:18.994Z,10.60
2023-04-16T16:23:49.655Z,10.60
2023-04-16T16:26:23.861Z,10.60
2023-04-16T16:28:54.628Z,10.60
2023-04-16T16:31:28.657Z,10.50
2023-04-16T16:33:59.532Z,10.50
2023-04-16T16:36:32.649Z,10.40
2023-04-16T16:39:04.372Z,10.40
2023-04-16T16:41:38.001Z,10.40
2023-04-16T16:44:09.086Z,10.30
2023-04-16T16:46:43.525Z,10.30
2023-04-16T16:49:16.074Z,10.20
2023-04-16T16:51:48.558Z,10.20
2023-04-16T16:54:19.347Z,10.20
2023-04-16T16:56:52.429Z,10.20
2023-04-16T16:59:23.162Z,10.10
2023-04-16T17:02:00.006Z,10.10
2023-04-16T17:04:31.169Z,10.10
2023-04-16T17:07:02.497Z,10.10
2023-04-16T17:09:33.382Z,10.00
2023-04-16T17:12:04.855Z,10.00
2023-04-16T17:14:35.726Z,10.00
2023-04-16T17:17:09.674Z,9.90
2023-04-16T17:19:40.553Z,9.90
2023-04-16T17:22:12.236Z,9.80
2023-04-16T17:24:43.071Z,9.80
2023-04-16T17:27:14.178Z,9.80
2023-04-16T17:29:45.147Z,9.70
2023-04-16T17:32:19.011Z,9.70
2023-04-16T17:34:50.511Z,9.70
2023-04-16T17:37:21.897Z,9.60
2023-04-16T17:39:54.230Z,9.60
2023-04-16T17:42:25.810Z,9.50
2023-04-16T17:44:56.916Z,9.40
2023-04-16T17:47:32.719Z,9.40
2023-04-16T17:50:03.919Z,9.40
2023-04-16T17:52:35.191Z,9.40
2023-04-16T17:55:06.294Z,9.40
2023-04-16T17:57:37.575Z,9.30
2023-04-16T18:00:11.398Z,9.30
2023-04-16T18:02:47.968Z,9.30
2023-04-16T18:05:20.178Z,9.30
2023-04-16T18:07:51.944Z,9.20
2023-04-16T18:10:23.334Z,9.20
2023-04-16T18:12:54.638Z,9.10
2023-04-16T18:15:26.140Z,9.10
2023-04-16T18:18:00.337Z,9.00
2023-04-16T18:20:31.554Z,9.00
2023-04-16T18:23:03.460Z,8.90
2023-04-16T18:25:35.388Z,8.90
2023-04-16T18:28:06.960Z,8.90
2023-04-16T18:30:40.360Z,8.80
2023-04-16T18:33:34.377Z,8.80
2023-04-16T18:36:05.652Z,8.80
2023-04-16T18:38:43.579Z,8.70
2023-04-16T18:41:21.212Z,8.70
2023-04-16T18:43:53.316Z,8.60
2023-04-16T18:46:24.178Z,8.60
2023-04-16T18:48:59.899Z,8.50
2023-04-16T18:51:30.856Z,8.40
2023-04-16T18:54:02.400Z,8.40
2023-04-16T18:56:33.354Z,8.30
2023-04-16T18:59:04.559Z,8.30
2023-04-16T19:01:35.543Z,8.20
2023-04-16T19:04:09.412Z,8.20
2023-04-16T19:06:40.648Z,8.20
2023-04-16T19:09:13.341Z,8.20
2023-04-16T19:11:44.513Z,8.20
2023-04-16T19:14:16.725Z,8.10
2023-04-16T19:16:47.632Z,8.10
2023-04-16T19:19:21.435Z,8.10
2023-04-16T19:21:52.530Z,8.00
2023-04-16T19:24:23.905Z,8.00
2023-04-16T19:26:54.630Z,8.00
2023-04-16T19:29:26.290Z,8.00
2023-04-16T19:31:57.142Z,7.90
2023-04-16T19:34:31.326Z,7.80
2023-04-16T19:37:02.177Z,7.80
2023-04-16T19:39:33.625Z,7.80
2023-04-16T19:42:04.589Z,7.70
2023-04-16T19:44:36.239Z,7.70
2023-04-16T19:47:07.350Z,7.70
2023-04-16T19:49:44.049Z,7.70
2023-04-16T19:52:15.191Z,7.70
2023-04-16T19:54:47.079Z,7.60
2023-04-16T19:57:17.832Z,7.60
2023-04-16T19:59:50.550Z,7.60
2023-04-16T20:02:22.034Z,7.60
2023-04-16T20:04:56.316Z,7.60
2023-04-16T20:07:27.567Z,7.60
2023-04-16T20:09:58.866Z,7.60
2023-04-16T20:12:29.574Z,7.70
2023-04-16T20:15:00.758Z,7.70
2023-04-16T20:17:31.554Z,7.70
2023-04-16T20:20:10.382Z,7.60
2023-04-16T20:22:41.285Z,7.70
2023-04-16T20:25:14.681Z,7.70
2023-04-16T20:27:45.421Z,7.80
2023-04-16T20:30:17.517Z,7.80
2023-04-16T20:32:48.421Z,7.80
2023-04-16T20:35:22.223Z,7.80
2023-04-16T20:37:52.956Z,7.80
2023-04-16T20:40:24.432Z,7.90
2023-04-16T20:42:56.878Z,7.90
2023-04-16T20:45:32.604Z,7.90
2023-04-16T20:48:03.415Z,7.90
2023-04-16T20:50:37.280Z,7.90
2023-04-16T20:53:08.032Z,7.80
2023-04-16T20:55:39.402Z,7.80
2023-04-16T20:58:10.248Z,7.80
2023-04-16T21:00:41.375Z,7.70
2023-04-16T21:03:12.228Z,7.70
2023-04-16T21:05:50.288Z,7.70
2023-04-16T21:08:21.154Z,7.70
2023-04-16T21:10:52.455Z,7.80
2023-04-16T21:13:23.895Z,7.80
2023-04-16T21:15:55.231Z,7.80
2023-04-16T21:18:25.949Z,7.80
2023-04-16T21:21:01.696Z,7.80
2023-04-16T21:23:32.508Z,7.80
2023-04-16T21:26:04.078Z,7.80
2023-04-16T21:28:34.823Z,7.80
2023-04-16T21:31:06.241Z,7.80
2023-04-16T21:33:37.071Z,7.80
2023-04-16T21:36:13.169Z,7.80
2023-04-16T21:38:43.868Z,7.80
2023-04-16T21:41:15.037Z,7.80
2023-04-16T21:43:45.979Z,7.80
2023-04-16T21:46:17.080Z,7.90
2023-04-16T21:48:48.772Z,7.90
2023-04-16T21:51:29.432Z,7.90
2023-04-16T21:54:00.394Z,7.90
2023-04-16T21:56:31.812Z,7.80
2023-04-16T21:59:02.555Z,7.70
2023-04-16T22:01:33.776Z,7.70
2023-04-16T22:04:05.805Z,7.70
2023-04-16T22:06:40.634Z,7.60
2023-04-16T22:09:11.583Z,7.60
2023-04-16T22:11:43.016Z,7.60
2023-04-16T22:14:14.881Z,7.70
2023-04-16T22:16:46.052Z,7.70
2023-04-16T22:19:18.085Z,7.80
2023-04-16T22:21:51.862Z,7.80
2023-04-16T22:24:22.755Z,7.80
2023-04-16T22:26:53.854Z,7.80
2023-04-16T22:29:25.450Z,7.80
2023-04-16T22:31:56.718Z,7.80
2023-04-16T22:34:27.559Z,7.80
2023-04-16T22:37:01.799Z,7.90
2023-04-16T22:39:32.618Z,7.90
2023-04-16T22:42:03.902Z,8.00
2023-04-16T22:44:34.665Z,8.00
2023-04-16T22:47:05.776Z,8.10
2023-04-16T22:49:36.731Z,8.10
2023-04-16T22:52:10.413Z,8.10
2023-04-16T22:54:41.633Z,8.20
2023-04-16T22:57:12.944Z,8.20
2023-04-16T22:59:43.852Z,8.20
2023-04-16T23:02:15.458Z,8.20
2023-04-16T23:04:46.433Z,8.20
2023-04-16T23:07:20.244Z,8.20
2023-04-16T23:09:51.647Z,8.20
2023-04-16T23:12:22.714Z,8.20
2023-04-16T23:14:53.514Z,8.20
2023-04-16T23:17:24.684Z,8.20
2023-04-16T23:19:55.435Z,8.20
2023-04-16T23:22:29.193Z,8.20
2023-04-16T23:24:59.976Z,8.20
2023-04-16T23:27:32.783Z,8.20
2023-04-16T23:30:03.572Z,8.20
2023-04-16T23:32:34.941Z,8.20
2023-04-16T23:35:06.030Z,8.20
2023-04-16T23:37:39.737Z,8.20
2023-04-16T23:40:11.404Z,8.20
2023-04-16T23:42:42.795Z,8.20
2023-04-16T23:45:13.719Z,8.30
2023-04-16T23:47:45.046Z,8.30
2023-04-16T23:50:16.017Z,8.30
2023-04-16T23:52:49.792Z,8.30
2023-04-16T23:55:20.589Z,8.30
2023-04-16T23:57:51.686Z,8.30
